Eyebrow, Canada
Current Conditions -  °F | °C
As of 8:00 AM on Thursday 29 Jan 2015 (Local Time) from CYMJ Reporting Station
Broken Clouds Broken Clouds  
Wind Chill:   Ceiling: 900
Heat Index: 16°   Visibility: 15mi
Dew Point: 14°   Wind: 7mph
Humidity: 93%   Direction: 320°NW
Pressure: 30.48"   Gusts: NA
Location:  50.8°N, 106.15°W
Report Text: CYMJ 291400Z 32006KT 15SM BKN009 M09/M10 A3048 RMK SF7 SLP357
Loading
Personal Weather Stations






























Interactive Weather Map New forecast layout! Learn more

10-Day Weather Forecast

Advertisements
Track Severe Weather on mobile